Time;durP1;ratioP1;P1;durP2;ratioP2;P2;SDS_P1;SDS_P2;PMS_P1;PMS_P2;Temp;Humidity;BMP_temperature;BMP_pressure;BME280_temperature;BME280_humidity;BME280_pressure;Samples;Min_cycle;Max_cycle;Signal;HPM_P1;HPM_P2
2023/12/17 00:02:06;;;;;;;15.90;14.53;;;;;;;9.75;97.33;102367.53;4990951;28;20215;-79
2023/12/17 00:04:32;;;;;;;16.50;15.07;;;;;;;9.93;96.79;102362.59;4991634;28;20215;-78
2023/12/17 00:06:59;;;;;;;16.60;15.33;;;;;;;9.83;96.17;102380.69;4991458;28;20199;-78
2023/12/17 00:09:26;;;;;;;17.83;16.13;;;;;;;9.99;96.69;102369.66;4991480;28;20658;-79
2023/12/17 00:11:52;;;;;;;18.03;16.57;;;;;;;9.93;96.11;102385.22;4991482;28;20603;-79
2023/12/17 00:14:18;;;;;;;15.70;14.43;;;;;;;9.94;96.35;102394.78;4991438;28;20230;-79
2023/12/17 00:16:45;;;;;;;17.40;15.90;;;;;;;9.98;95.89;102391.34;4990848;28;20207;-79
2023/12/17 00:19:12;;;;;;;17.60;16.20;;;;;;;9.89;95.92;102392.13;4991806;28;20262;-79
2023/12/17 00:21:39;;;;;;;18.70;17.17;;;;;;;9.82;97.01;102377.22;4990398;28;20269;-79
2023/12/17 00:24:05;;;;;;;15.73;14.43;;;;;;;9.81;96.88;102378.09;4991582;28;20219;-79
2023/12/17 00:26:32;;;;;;;16.53;14.97;;;;;;;9.72;96.67;102389.22;4990893;28;20219;-78
2023/12/17 00:28:58;;;;;;;15.47;14.20;;;;;;;9.68;96.82;102389.16;4990545;28;20226;-77
2023/12/17 00:31:24;;;;;;;17.20;15.70;;;;;;;9.76;97.37;102384.94;4990507;28;20234;-79
2023/12/17 00:33:51;;;;;;;15.97;14.67;;;;;;;9.76;96.81;102395.38;4990662;28;20714;-79
2023/12/17 00:36:18;;;;;;;17.07;15.67;;;;;;;9.88;96.54;102402.50;4991410;28;20614;-78
2023/12/17 00:38:45;;;;;;;17.93;16.23;;;;;;;9.83;96.20;102414.59;4995352;28;20277;-79
2023/12/17 00:41:11;;;;;;;15.97;14.77;;;;;;;9.76;96.30;102411.03;4987137;28;20273;-79
2023/12/17 00:43:38;;;;;;;18.45;16.75;;;;;;;9.77;96.88;102394.50;4649879;28;10000599;-79
2023/12/17 00:46:05;;;;;;;17.70;16.20;;;;;;;9.79;97.19;102392.81;4996203;28;20203;-79
2023/12/17 00:48:31;;;;;;;19.97;18.27;;;;;;;9.81;97.02;102383.28;4995573;28;20737;-78
2023/12/17 00:50:57;;;;;;;20.40;18.43;;;;;;;9.58;98.38;102379.44;4996667;28;20210;-79
2023/12/17 00:53:25;;;;;;;18.93;17.37;;;;;;;9.66;98.08;102376.09;4996094;28;20697;-78
2023/12/17 00:55:52;;;;;;;19.93;18.27;;;;;;;9.78;97.54;102377.16;4995976;28;20211;-78
2023/12/17 00:58:18;;;;;;;19.97;18.30;;;;;;;9.68;97.43;102390.03;4997443;28;20273;-78
2023/12/17 01:00:44;;;;;;;21.17;19.30;;;;;;;9.79;97.27;102392.81;4998417;28;20204;-78
2023/12/17 01:03:11;;;;;;;20.00;18.27;;;;;;;9.53;97.34;102382.84;4998091;28;20765;-78
2023/12/17 01:05:37;;;;;;;20.17;18.47;;;;;;;9.66;97.77;102377.84;4996654;28;20670;-78
2023/12/17 01:08:04;;;;;;;18.53;17.03;;;;;;;9.88;96.59;102397.31;4990406;28;20211;-78
2023/12/17 01:10:31;;;;;;;19.60;17.90;;;;;;;9.77;97.21;102398.84;4998215;28;20250;-79
2023/12/17 01:12:58;;;;;;;21.03;19.23;;;;;;;9.33;98.79;102392.91;4997354;28;20761;-79
2023/12/17 01:15:24;;;;;;;21.87;20.07;;;;;;;9.40;99.06;102369.59;4997903;28;20588;-78
2023/12/17 01:17:50;;;;;;;20.87;19.07;;;;;;;9.52;99.03;102362.84;4997467;28;20237;-79
2023/12/17 01:20:17;;;;;;;20.57;18.83;;;;;;;9.61;98.08;102377.72;4997383;28;20674;-78
2023/12/17 01:22:43;;;;;;;20.20;18.50;;;;;;;9.64;97.77;102389.97;4997079;28;20239;-79
2023/12/17 01:25:10;;;;;;;19.60;18.00;;;;;;;9.59;98.11;102395.09;4998034;28;20206;-78
2023/12/17 01:27:37;;;;;;;16.23;14.83;;;;;;;9.28;99.10;102381.53;4996824;28;20273;-78
2023/12/17 01:30:04;;;;;;;18.80;17.10;;;;;;;9.28;100.00;102363.28;4997843;28;20215;-78
2023/12/17 01:32:31;;;;;;;19.63;17.63;;;;;;;9.20;100.00;102344.06;4997111;28;20223;-78
2023/12/17 01:34:57;;;;;;;18.53;16.97;;;;;;;9.41;100.00;102338.31;4996563;28;20774;-78
2023/12/17 01:37:23;;;;;;;21.10;19.10;;;;;;;9.54;98.69;102335.06;4996937;28;20242;-79
2023/12/17 01:39:49;;;;;;;18.17;16.70;;;;;;;9.51;98.80;102339.34;4997015;28;20204;-79
2023/12/17 01:42:16;;;;;;;18.23;16.73;;;;;;;9.33;98.91;102346.00;4996959;28;20235;-78
2023/12/17 01:44:44;;;;;;;18.13;16.37;;;;;;;9.51;99.24;102339.34;4996881;28;20736;-78
2023/12/17 01:47:10;;;;;;;18.50;17.00;;;;;;;9.64;98.36;102351.72;5003529;28;20209;-79
2023/12/17 01:49:37;;;;;;;15.67;14.27;;;;;;;9.78;97.23;102361.50;5005585;28;20211;-79
2023/12/17 01:52:03;;;;;;;13.10;12.10;;;;;;;9.74;96.46;102389.25;4996402;28;20210;-79
2023/12/17 01:54:30;;;;;;;14.53;13.30;;;;;;;9.86;96.01;102393.78;4997315;28;20227;-79
2023/12/17 01:56:56;;;;;;;13.73;12.60;;;;;;;9.72;95.19;102420.53;4997488;28;20265;-79
2023/12/17 01:59:23;;;;;;;12.40;11.40;;;;;;;9.79;96.50;102392.81;4997256;28;20273;-79
2023/12/17 02:01:53;;;;;;;11.83;10.83;;;;;;;9.97;95.49;102397.44;4997412;28;20269;-79
2023/12/17 02:04:21;;;;;;;11.63;10.63;;;;;;;9.91;94.89;102408.66;4997282;28;20227;-79
2023/12/17 02:06:47;;;;;;;11.30;10.33;;;;;;;9.71;95.27;102413.56;4996563;28;20222;-80
2023/12/17 02:09:14;;;;;;;11.30;10.40;;;;;;;9.95;94.73;102422.63;4997646;28;20211;-79
2023/12/17 02:11:40;;;;;;;10.40;9.60;;;;;;;9.99;94.61;102421.84;4997346;28;20294;-79
2023/12/17 02:14:06;;;;;;;10.60;9.10;;;;;;;10.03;94.43;102420.13;4997626;28;20231;-78
2023/12/17 02:16:33;;;;;;;9.40;8.60;;;;;;;10.00;93.64;102443.56;4996853;28;20216;-79
2023/12/17 02:19:01;;;;;;;9.33;8.63;;;;;;;9.89;94.13;102435.56;4996885;28;20230;-79
2023/12/17 02:21:28;;;;;;;9.07;8.37;;;;;;;9.89;93.80;102427.72;4990065;28;20230;-80
2023/12/17 02:23:55;;;;;;;9.57;8.80;;;;;;;9.82;94.85;102431.97;4990545;28;20278;-79
2023/12/17 02:26:22;;;;;;;9.17;8.47;;;;;;;9.89;94.85;102428.63;4991441;28;20208;-80
2023/12/17 02:28:48;;;;;;;9.83;9.03;;;;;;;9.82;94.67;102431.13;4992650;28;20291;-79
2023/12/17 02:31:15;;;;;;;9.70;8.90;;;;;;;9.99;94.39;102433.97;4991795;28;20682;-79
2023/12/17 02:33:41;;;;;;;9.33;8.63;;;;;;;9.95;94.48;102433.06;4988581;28;20713;-79
2023/12/17 02:36:08;;;;;;;8.33;7.60;;;;;;;10.10;93.67;102440.25;4989005;28;20617;-79
2023/12/17 02:38:35;;;;;;;7.50;6.90;;;;;;;9.74;94.60;102459.66;4987177;28;20550;-79
2023/12/17 02:41:02;;;;;;;7.90;7.20;;;;;;;9.80;95.18;102435.44;4990010;28;20247;-79
2023/12/17 02:43:29;;;;;;;8.37;7.77;;;;;;;9.77;94.51;102437.97;4987551;28;20231;-80
2023/12/17 02:45:55;;;;;;;8.33;7.73;;;;;;;9.65;94.60;102447.38;4989515;28;20208;-79
2023/12/17 02:48:21;;;;;;;9.00;8.30;;;;;;;9.67;94.81;102447.38;4988811;28;20625;-79
2023/12/17 02:50:48;;;;;;;9.27;8.50;;;;;;;9.59;96.28;102421.16;4989253;28;20217;-79
2023/12/17 02:53:14;;;;;;;9.73;8.93;;;;;;;9.65;96.48;102410.84;4988678;28;20231;-79
2023/12/17 02:55:40;;;;;;;9.90;9.17;;;;;;;9.45;97.21;102397.47;4987331;28;20204;-79
2023/12/17 02:58:08;;;;;;;9.07;8.27;;;;;;;9.74;96.94;102384.03;4990346;28;20210;-79
2023/12/17 03:00:34;;;;;;;7.87;7.30;;;;;;;9.72;95.46;102404.88;4987027;28;20209;-79
2023/12/17 03:03:00;;;;;;;8.07;7.47;;;;;;;9.52;96.00;102409.75;4989858;28;20710;-79
2023/12/17 03:05:27;;;;;;;8.90;8.20;;;;;;;9.76;95.67;102395.38;4988808;28;20285;-79
2023/12/17 03:07:53;;;;;;;8.07;7.47;;;;;;;9.70;95.42;102410.94;4989389;28;20261;-80
2023/12/17 03:10:19;;;;;;;9.70;8.90;;;;;;;9.51;96.86;102387.16;4989088;28;20659;-79
2023/12/17 03:12:46;;;;;;;9.33;8.53;;;;;;;9.46;97.80;102367.94;4987522;28;20290;-79
2023/12/17 03:15:13;;;;;;;9.47;8.77;;;;;;;9.65;96.77;102363.03;4989132;28;20297;-80
2023/12/17 03:17:40;;;;;;;9.13;8.43;;;;;;;9.54;96.08;102373.28;4988946;28;20201;-79
2023/12/17 03:20:08;;;;;;;9.50;8.80;;;;;;;9.63;95.76;102370.84;4990763;28;20235;-79
2023/12/17 03:22:34;;;;;;;8.27;7.57;;;;;;;9.71;94.15;102390.09;4986627;28;20224;-80
2023/12/17 03:25:01;;;;;;;7.17;6.67;;;;;;;9.59;94.29;102402.03;4989952;28;20199;-79
2023/12/17 03:27:27;;;;;;;8.57;7.87;;;;;;;9.81;94.03;102414.59;4987684;28;20207;-79
2023/12/17 03:29:54;;;;;;;8.97;8.27;;;;;;;9.58;93.67;102427.25;4989993;28;20216;-79
2023/12/17 03:32:21;;;;;;;9.47;8.67;;;;;;;9.47;95.16;102416.59;4988472;28;20263;-79
2023/12/17 03:34:48;;;;;;;11.13;10.13;;;;;;;9.38;96.23;102384.31;4987215;28;20286;-79
2023/12/17 03:37:14;;;;;;;10.80;10.00;;;;;;;9.47;96.04;102374.91;4989501;28;20250;-79
2023/12/17 03:39:40;;;;;;;11.10;10.20;;;;;;;9.75;95.15;102375.34;4986794;28;20212;-79
2023/12/17 03:42:07;;;;;;;9.67;8.97;;;;;;;9.58;94.52;102379.44;4988935;28;20207;-79
2023/12/17 03:44:33;;;;;;;8.13;7.53;;;;;;;9.65;94.01;102402.13;4986387;28;20236;-80
2023/12/17 03:46:59;;;;;;;8.57;7.87;;;;;;;9.53;93.61;102421.06;4988413;28;20207;-79
2023/12/17 03:49:27;;;;;;;9.93;9.13;;;;;;;9.80;93.59;102402.38;4995524;28;20216;-79
2023/12/17 03:51:53;;;;;;;8.63;8.03;;;;;;;9.86;92.97;102406.84;4995209;28;20207;-79
2023/12/17 03:54:20;;;;;;;9.67;8.87;;;;;;;9.58;92.75;102414.19;4996226;28;20231;-79
2023/12/17 03:56:47;;;;;;;11.00;10.17;;;;;;;9.76;93.55;102382.34;4995314;28;20203;-79
2023/12/17 03:59:13;;;;;;;10.50;9.80;;;;;;;9.87;92.95;102391.22;4987366;28;20212;-80
2023/12/17 04:01:44;;;;;;;9.23;8.53;;;;;;;10.02;92.05;102411.44;4994781;28;20571;-80
2023/12/17 04:04:11;;;;;;;8.13;7.53;;;;;;;10.06;91.34;102421.06;4994753;28;20222;-79
2023/12/17 04:06:41;;;;;;;7.40;6.80;;;;;;;9.90;90.90;102439.94;4994298;28;20206;-79
2023/12/17 04:09:08;;;;;;;7.80;7.23;;;;;;;10.14;90.45;102442.91;4994680;28;20701;-79
2023/12/17 04:11:34;;;;;;;7.30;6.70;;;;;;;10.05;89.80;102467.97;4994712;28;20211;-79
2023/12/17 04:14:01;;;;;;;7.67;7.07;;;;;;;9.63;90.54;102474.25;4993849;28;20653;-79
2023/12/17 04:16:27;;;;;;;7.57;7.00;;;;;;;9.83;91.04;102440.69;4994300;28;20212;-79
2023/12/17 04:18:54;;;;;;;7.60;7.10;;;;;;;9.88;90.89;102439.03;4993878;28;20613;-79
2023/12/17 04:21:20;;;;;;;7.33;6.77;;;;;;;9.88;90.69;102450.34;4994022;28;20622;-79
2023/12/17 04:23:48;;;;;;;7.03;6.53;;;;;;;9.96;90.36;102444.38;4994735;28;20313;-79
2023/12/17 04:26:14;;;;;;;7.53;6.93;;;;;;;9.85;90.07;102452.00;4986614;28;20208;-79
2023/12/17 04:28:40;;;;;;;7.23;6.73;;;;;;;9.77;90.42;102461.44;4993657;28;20208;-79
2023/12/17 04:31:07;;;;;;;8.13;7.53;;;;;;;9.87;90.74;102446.00;4994289;28;20211;-79
2023/12/17 04:33:33;;;;;;;8.67;7.97;;;;;;;9.67;90.55;102466.53;4994573;28;20274;-79
2023/12/17 04:36:00;;;;;;;8.47;7.77;;;;;;;9.78;91.27;102447.56;4994573;28;20231;-78
2023/12/17 04:38:26;;;;;;;7.87;7.27;;;;;;;9.75;90.88;102443.16;4993571;28;20234;-79
2023/12/17 04:40:54;;;;;;;8.50;7.80;;;;;;;9.49;91.97;102429.69;4994258;28;20208;-79
2023/12/17 04:43:21;;;;;;;9.33;8.67;;;;;;;9.60;91.88;102409.88;4993584;28;20243;-79
2023/12/17 04:45:48;;;;;;;10.47;9.67;;;;;;;9.51;92.87;102394.97;4994154;28;20210;-80
2023/12/17 04:48:14;;;;;;;9.63;8.83;;;;;;;9.53;92.24;102394.97;4993918;28;20212;-79
2023/12/17 04:50:41;;;;;;;9.37;8.57;;;;;;;9.66;92.24;102386.53;4994467;28;20298;-79
2023/12/17 04:53:07;;;;;;;9.90;9.10;;;;;;;9.60;92.33;102390.78;4993217;28;20262;-79
2023/12/17 04:55:34;;;;;;;10.73;9.83;;;;;;;9.74;91.92;102400.56;4993258;28;20265;-79
2023/12/17 04:58:02;;;;;;;10.63;9.73;;;;;;;9.79;91.78;102391.94;4993674;28;20290;-79
2023/12/17 05:00:28;;;;;;;10.60;9.80;;;;;;;9.71;91.53;102410.97;4994024;28;20208;-79
2023/12/17 05:02:54;;;;;;;11.07;10.27;;;;;;;9.57;92.04;102407.22;4994077;28;20223;-79
2023/12/17 05:05:22;;;;;;;10.17;9.27;;;;;;;9.79;91.79;102392.81;4993979;28;20203;-79
2023/12/17 05:07:49;;;;;;;9.77;9.00;;;;;;;9.40;92.43;102408.69;4993394;28;20204;-79
2023/12/17 05:10:15;;;;;;;9.30;8.43;;;;;;;9.52;91.56;102403.66;4993785;28;20630;-79
2023/12/17 05:12:42;;;;;;;10.13;9.43;;;;;;;9.48;92.21;102401.88;4994002;28;20227;-79
2023/12/17 05:15:10;;;;;;;11.37;10.33;;;;;;;9.70;92.47;102390.94;4993235;28;20259;-79
2023/12/17 05:17:36;;;;;;;11.57;10.57;;;;;;;9.60;92.28;102388.16;4993782;28;20749;-79
2023/12/17 05:20:02;;;;;;;9.80;9.00;;;;;;;9.62;91.11;102405.56;4993251;28;20667;-79
2023/12/17 05:22:29;;;;;;;10.93;10.13;;;;;;;9.63;91.56;102423.00;4994158;28;20856;-79
2023/12/17 05:24:55;;;;;;;10.13;9.33;;;;;;;9.64;91.35;102434.28;4997132;28;20666;-79
2023/12/17 05:27:21;;;;;;;10.77;9.97;;;;;;;9.79;91.35;102424.13;4997571;28;20662;-79
2023/12/17 05:29:48;;;;;;;10.77;9.97;;;;;;;9.85;91.04;102431.16;4997402;28;20203;-79
2023/12/17 05:32:16;;;;;;;11.20;10.33;;;;;;;9.77;90.24;102438.84;4997039;28;20207;-78
2023/12/17 05:34:42;;;;;;;10.70;9.80;;;;;;;9.86;90.89;102435.53;4997566;28;20258;-80
2023/12/17 05:37:08;;;;;;;11.10;10.20;;;;;;;9.64;90.88;102457.75;4996736;28;20211;-79
2023/12/17 05:39:35;;;;;;;10.17;9.37;;;;;;;9.91;90.42;102439.06;4997388;28;20265;-79
2023/12/17 05:42:01;;;;;;;10.23;9.37;;;;;;;9.83;89.75;102465.06;4996415;28;20219;-78
2023/12/17 05:44:28;;;;;;;10.27;9.43;;;;;;;9.61;91.28;102445.53;4997371;28;20199;-79
2023/12/17 05:46:54;;;;;;;11.17;10.37;;;;;;;9.60;91.38;102438.56;4997009;28;20204;-80
2023/12/17 05:49:22;;;;;;;10.30;9.50;;;;;;;9.52;92.00;102424.53;4997612;28;20200;-79
2023/12/17 05:51:49;;;;;;;12.03;11.13;;;;;;;9.82;91.46;102405.03;4996808;28;20204;-79
2023/12/17 05:54:15;;;;;;;10.70;9.80;;;;;;;9.94;90.77;102415.66;4997167;28;20365;-79
2023/12/17 05:56:42;;;;;;;9.47;8.77;;;;;;;9.97;89.86;102448.72;4996801;28;20203;-79
2023/12/17 05:59:09;;;;;;;9.93;9.23;;;;;;;9.94;89.77;102453.03;4996948;28;20204;-79
2023/12/17 06:01:36;;;;;;;11.53;10.63;;;;;;;9.81;90.38;102455.44;4997049;28;20671;-79
2023/12/17 06:04:03;;;;;;;10.47;9.67;;;;;;;9.91;90.07;102454.72;4996251;28;20247;-79
2023/12/17 06:06:30;;;;;;;9.90;9.20;;;;;;;10.03;89.43;102464.47;4996594;28;20254;-79
2023/12/17 06:08:57;;;;;;;8.97;8.27;;;;;;;9.98;89.76;102469.63;4996681;28;20258;-79
2023/12/17 06:11:23;;;;;;;10.33;9.50;;;;;;;9.91;89.98;102446.88;4997001;28;20282;-79
2023/12/17 06:13:49;;;;;;;9.13;8.43;;;;;;;9.83;89.51;102449.41;4996220;28;20278;-79
2023/12/17 06:16:16;;;;;;;8.27;7.67;;;;;;;9.91;89.67;102457.31;4996627;28;20235;-79
2023/12/17 06:18:42;;;;;;;8.70;8.10;;;;;;;9.89;89.62;102461.63;4996813;28;20254;-79
2023/12/17 06:21:09;;;;;;;8.83;8.13;;;;;;;9.99;89.38;102471.41;4995683;28;20200;-78
2023/12/17 06:23:36;;;;;;;9.90;9.10;;;;;;;9.67;89.68;102483.88;4996225;28;20303;-78
2023/12/17 06:26:04;;;;;;;9.50;8.80;;;;;;;9.84;89.90;102471.13;4996492;28;20254;-79
2023/12/17 06:28:30;;;;;;;9.37;8.67;;;;;;;9.86;90.09;102467.69;4996727;28;20207;-79
2023/12/17 06:30:57;;;;;;;9.83;9.03;;;;;;;9.77;89.93;102466.66;4995974;28;20208;-79
2023/12/17 06:33:23;;;;;;;11.20;10.40;;;;;;;9.70;90.22;102461.34;4992955;28;20224;-79
2023/12/17 06:35:49;;;;;;;10.13;9.33;;;;;;;9.92;90.05;102453.88;4991341;28;20227;-79
2023/12/17 06:38:16;;;;;;;9.27;8.57;;;;;;;9.97;89.25;102456.56;4995901;28;20208;-79
2023/12/17 06:40:43;;;;;;;10.23;9.37;;;;;;;10.11;89.09;102468.13;4996700;28;20667;-79
2023/12/17 06:43:10;;;;;;;9.60;8.90;;;;;;;10.09;89.04;102473.31;4996213;28;20235;-79
2023/12/17 06:45:36;;;;;;;9.23;8.53;;;;;;;9.92;88.52;102493.88;4995640;28;20199;-79
2023/12/17 06:48:03;;;;;;;9.90;9.10;;;;;;;10.03;88.88;102494.06;4999136;28;20203;-78
2023/12/17 06:50:29;;;;;;;9.57;8.87;;;;;;;10.04;88.93;102488.00;5001336;28;20266;-78
2023/12/17 06:52:55;;;;;;;9.23;8.53;;;;;;;10.12;88.51;102491.59;5001082;28;20281;-78
2023/12/17 06:55:22;;;;;;;10.00;9.20;;;;;;;9.89;89.57;102483.41;5001480;28;20254;-78
2023/12/17 06:57:50;;;;;;;10.40;9.63;;;;;;;9.83;89.63;102482.41;5001915;28;20204;-79
2023/12/17 07:00:17;;;;;;;9.87;9.07;;;;;;;9.55;90.48;102466.28;5000697;28;20204;-78
2023/12/17 07:02:44;;;;;;;10.20;9.43;;;;;;;9.68;90.75;102456.97;5000840;28;20226;-78
2023/12/17 07:05:11;;;;;;;10.73;9.67;;;;;;;9.86;90.71;102443.34;4989624;28;20295;-80
2023/12/17 07:07:37;;;;;;;11.00;10.17;;;;;;;9.81;90.86;102448.50;4994917;28;20693;-78
2023/12/17 07:10:04;;;;;;;9.70;9.00;;;;;;;9.98;89.98;102460.94;4996541;28;20215;-79
2023/12/17 07:12:31;;;;;;;10.40;9.63;;;;;;;9.96;89.83;102475.69;4995640;28;20231;-79
2023/12/17 07:14:58;;;;;;;10.50;9.80;;;;;;;10.02;89.57;102479.25;4995204;28;20741;-79
2023/12/17 07:17:25;;;;;;;28.17;25.43;;;;;;;10.12;89.17;102483.75;4995739;28;20257;-79
2023/12/17 07:19:51;;;;;;;13.10;12.07;;;;;;;10.05;89.04;102481.03;4998535;28;20706;-79
2023/12/17 07:22:22;;;;;;;10.03;9.33;;;;;;;9.87;89.16;102492.03;4999014;28;20628;-78
2023/12/17 07:24:48;;;;;;;10.23;9.43;;;;;;;9.71;89.87;102473.53;4995302;28;20297;-79
2023/12/17 07:27:15;;;;;;;10.80;9.90;;;;;;;9.87;89.81;102453.81;4995224;28;20207;-79
2023/12/17 07:29:41;;;;;;;10.80;9.90;;;;;;;9.96;89.23;102473.06;4995820;28;20221;-79
2023/12/17 07:32:09;;;;;;;10.70;9.90;;;;;;;9.94;89.34;102468.69;5001393;28;20215;-78
2023/12/17 07:34:35;;;;;;;10.17;9.37;;;;;;;9.98;89.26;102489.63;5005263;28;20207;-79
2023/12/17 07:37:02;;;;;;;9.87;9.07;;;;;;;9.93;89.35;102492.19;5004472;28;20204;-79
2023/12/17 07:39:28;;;;;;;9.90;9.10;;;;;;;9.93;89.43;102495.66;4997607;28;20207;-79
2023/12/17 07:41:54;;;;;;;10.37;9.57;;;;;;;9.99;89.64;102492.28;5004604;28;20211;-79
2023/12/17 07:44:21;;;;;;;23.73;21.70;;;;;;;10.01;89.31;102503.63;5004267;28;20706;-79
2023/12/17 07:46:47;;;;;;;16.73;15.43;;;;;;;9.94;89.08;102497.41;5003921;28;20622;-78
2023/12/17 07:49:15;;;;;;;12.90;11.90;;;;;;;10.18;88.48;102503.00;5004345;28;20204;-79
2023/12/17 07:51:42;;;;;;;10.40;9.60;;;;;;;9.98;88.61;102523.56;5003195;28;20628;-79
2023/12/17 07:54:08;;;;;;;11.23;10.37;;;;;;;10.08;88.86;102505.44;5001825;28;20227;-79
2023/12/17 07:56:35;;;;;;;10.70;9.90;;;;;;;10.09;87.83;102514.19;5003424;28;20223;-78
2023/12/17 07:59:01;;;;;;;10.80;10.00;;;;;;;10.14;88.43;102505.53;4996660;28;20235;-80
2023/12/17 08:01:28;;;;;;;10.70;9.80;;;;;;;10.18;88.37;102493.44;4995002;28;20242;-79
2023/12/17 08:03:54;;;;;;;11.57;10.67;;;;;;;10.27;87.84;102504.03;4994552;28;20306;-79
2023/12/17 08:06:22;;;;;;;10.70;9.90;;;;;;;10.17;87.92;102517.78;4994119;28;20204;-80
2023/12/17 08:08:48;;;;;;;18.53;17.13;;;;;;;10.37;87.26;102527.72;4995013;28;20254;-80
2023/12/17 08:11:15;;;;;;;19.37;17.97;;;;;;;10.31;87.48;102525.88;4994842;28;20266;-80
2023/12/17 08:13:41;;;;;;;16.83;15.63;;;;;;;10.27;87.33;102535.34;4993479;28;20219;-80
2023/12/17 08:16:09;;;;;;;10.80;10.00;;;;;;;10.29;87.67;102527.56;4994815;28;20285;-79
2023/12/17 08:18:35;;;;;;;10.27;9.30;;;;;;;10.04;87.17;102545.38;4995718;28;20203;-79
2023/12/17 08:21:02;;;;;;;10.30;9.50;;;;;;;10.03;88.68;102511.44;4992915;28;20202;-79
2023/12/17 08:23:30;;;;;;;11.10;10.27;;;;;;;10.04;88.75;102510.59;4994584;28;20238;-80
2023/12/17 08:25:56;;;;;;;11.20;10.10;;;;;;;10.21;88.18;102505.63;4995240;28;20662;-79
2023/12/17 08:28:23;;;;;;;10.17;9.33;;;;;;;10.12;87.24;102527.25;4995271;28;20670;-79
2023/12/17 08:30:50;;;;;;;10.70;9.70;;;;;;;10.04;88.92;102506.25;4995527;28;20208;-79
2023/12/17 08:33:17;;;;;;;10.43;9.63;;;;;;;10.19;88.43;102523.00;4995159;28;20252;-79
2023/12/17 08:35:46;;;;;;;10.67;9.77;;;;;;;10.19;88.10;102525.63;4994932;28;20274;-80
2023/12/17 08:38:12;;;;;;;10.37;9.37;;;;;;;10.27;87.81;102526.66;4994862;28;20215;-80
2023/12/17 08:40:42;;;;;;;11.07;10.27;;;;;;;10.27;87.48;102544.91;4995889;28;20207;-79
2023/12/17 08:43:09;;;;;;;19.53;18.13;;;;;;;10.29;87.23;102540.59;4994867;28;20286;-78
2023/12/17 08:45:36;;;;;;;19.93;18.37;;;;;;;10.34;87.06;102546.78;4993460;28;20203;-78
2023/12/17 08:48:04;;;;;;;12.87;11.97;;;;;;;10.38;86.39;102566.88;4986465;28;20203;-79
2023/12/17 08:50:31;;;;;;;12.27;11.27;;;;;;;10.34;86.65;102562.44;4994186;28;20226;-79
2023/12/17 08:52:57;;;;;;;10.07;9.37;;;;;;;10.34;86.33;102565.94;4993921;28;20219;-78
2023/12/17 08:55:24;;;;;;;10.90;10.10;;;;;;;10.47;86.03;102572.25;4993070;28;20231;-78
2023/12/17 08:57:52;;;;;;;10.27;9.30;;;;;;;10.55;85.60;102588.03;4995284;28;20200;-78
2023/12/17 09:00:19;;;;;;;10.73;9.93;;;;;;;10.34;85.29;102599.00;4997433;28;20230;-78
2023/12/17 09:02:45;;;;;;;10.67;9.77;;;;;;;10.32;85.32;102612.00;4998213;28;20281;-78
2023/12/17 09:05:12;;;;;;;11.07;10.23;;;;;;;10.03;86.15;102603.66;4997102;28;20211;-78
2023/12/17 09:07:39;;;;;;;10.23;9.43;;;;;;;10.14;86.38;102593.41;4997216;28;20227;-78
2023/12/17 09:10:06;;;;;;;10.03;9.13;;;;;;;10.40;85.77;102579.94;4998619;28;20229;-79
2023/12/17 09:12:33;;;;;;;10.33;9.53;;;;;;;10.17;84.87;102603.00;4989749;28;20235;-79
2023/12/17 09:15:01;;;;;;;9.83;9.03;;;;;;;10.39;85.63;102597.34;4997952;28;20627;-79
2023/12/17 09:17:27;;;;;;;9.90;9.17;;;;;;;10.46;84.92;102599.19;4998512;28;20245;-79
2023/12/17 09:19:54;;;;;;;9.30;8.60;;;;;;;10.44;84.43;102613.09;4998165;28;20234;-79
2023/12/17 09:22:20;;;;;;;8.93;8.13;;;;;;;10.54;84.69;102604.53;4996993;28;20211;-78
2023/12/17 09:24:46;;;;;;;9.03;8.33;;;;;;;10.51;84.28;102614.97;4998154;28;20622;-79
2023/12/17 09:27:13;;;;;;;8.63;7.87;;;;;;;10.50;85.21;102594.91;4998137;28;20693;-79
2023/12/17 09:29:39;;;;;;;9.27;8.43;;;;;;;10.66;84.77;102596.03;4995214;28;20250;-79
2023/12/17 09:32:09;;;;;;;9.17;8.23;;;;;;;10.44;83.45;102619.19;4993685;28;20304;-78
2023/12/17 09:34:35;;;;;;;7.20;6.70;;;;;;;10.51;83.80;102609.75;4998198;28;20224;-79
2023/12/17 09:37:02;;;;;;;7.27;6.67;;;;;;;10.49;83.61;102614.94;4990525;28;20694;-79
2023/12/17 09:39:28;;;;;;;7.50;6.80;;;;;;;10.73;83.39;102618.78;4996328;28;20208;-78
2023/12/17 09:41:55;;;;;;;6.90;6.40;;;;;;;10.54;82.93;102625.44;4996634;28;20204;-78
2023/12/17 09:44:21;;;;;;;6.67;6.17;;;;;;;10.51;83.72;102609.75;4996364;28;20270;-78
2023/12/17 09:46:47;;;;;;;6.37;5.87;;;;;;;10.63;84.08;102601.22;4996013;28;20207;-78
2023/12/17 09:49:15;;;;;;;7.10;6.60;;;;;;;10.33;83.02;102632.06;4996073;28;20238;-78
2023/12/17 09:51:47;;;;;;;7.63;6.97;;;;;;;10.38;83.96;102623.44;4995441;28;20208;-78
2023/12/17 09:54:14;;;;;;;6.83;6.33;;;;;;;10.13;83.98;102630.81;4995984;28;20234;-78
2023/12/17 09:56:40;;;;;;;7.43;6.53;;;;;;;10.25;84.05;102604.06;4995805;28;20223;-79
2023/12/17 09:59:06;;;;;;;6.70;6.20;;;;;;;10.55;83.77;102614.16;4995988;28;20207;-78
2023/12/17 10:01:33;;;;;;;6.40;5.90;;;;;;;10.70;83.89;102622.25;4995749;28;20215;-78
2023/12/17 10:03:59;;;;;;;6.43;5.93;;;;;;;10.82;82.90;102621.56;4995494;28;20283;-79
2023/12/17 10:06:27;;;;;;;5.83;5.43;;;;;;;10.42;82.27;102660.06;4996135;28;20204;-79
2023/12/17 10:08:56;;;;;;;6.43;5.93;;;;;;;10.63;82.02;102641.28;4996049;28;20259;-78
2023/12/17 10:11:24;;;;;;;6.00;5.50;;;;;;;10.79;82.91;102615.41;4996228;28;20214;-79
2023/12/17 10:13:50;;;;;;;4.67;4.37;;;;;;;10.60;81.89;102635.09;4987013;28;20583;-78
2023/12/17 10:16:16;;;;;;;4.87;4.50;;;;;;;10.70;81.33;102640.53;4995519;28;20289;-78
2023/12/17 10:18:48;;;;;;;5.23;4.83;;;;;;;10.70;81.68;102632.69;4995888;28;20212;-78
2023/12/17 10:21:14;;;;;;;4.63;4.27;;;;;;;10.73;81.92;102614.44;4991599;28;20670;-78
2023/12/17 10:23:49;;;;;;;4.40;4.10;;;;;;;10.51;80.61;102651.50;4995843;28;20246;-78
2023/12/17 10:26:16;;;;;;;4.33;4.03;;;;;;;10.37;81.33;102651.28;5000607;28;20203;-78
2023/12/17 10:28:46;;;;;;;4.93;4.53;;;;;;;10.44;81.49;102641.81;4995030;28;20254;-78
2023/12/17 10:31:15;;;;;;;4.50;4.10;;;;;;;10.58;81.91;102636.81;4994390;28;20211;-78
2023/12/17 10:33:51;;;;;;;4.80;4.40;;;;;;;10.72;81.80;102636.19;4995816;28;20281;-79
2023/12/17 10:36:19;;;;;;;4.20;3.80;;;;;;;10.74;80.24;102659.72;4995234;28;20232;-79
2023/12/17 10:38:48;;;;;;;3.50;3.30;;;;;;;10.96;80.05;102666.19;4995385;28;20238;-79
2023/12/17 10:41:16;;;;;;;4.60;4.20;;;;;;;10.78;79.78;102685.03;4987472;28;20674;-79
2023/12/17 10:43:44;;;;;;;3.83;3.60;;;;;;;10.93;80.17;102681.81;4987907;28;20255;-79
2023/12/17 10:46:14;;;;;;;3.93;3.63;;;;;;;11.03;80.00;102677.59;4996025;28;20250;-79
2023/12/17 10:48:41;;;;;;;4.23;3.93;;;;;;;10.95;80.23;102679.22;4995152;28;20650;-79
2023/12/17 10:51:09;;;;;;;4.40;3.60;;;;;;;11.02;79.44;102695.03;4995078;28;20203;-78
2023/12/17 10:53:35;;;;;;;4.37;3.33;;;;;;;11.20;79.01;102710.09;4995652;28;20282;-78
2023/12/17 10:56:04;;;;;;;3.60;3.30;;;;;;;11.24;79.96;102691.00;4996033;28;20228;-79
2023/12/17 10:58:31;;;;;;;3.87;3.57;;;;;;;10.74;79.12;102704.13;4995501;28;20207;-79
2023/12/17 11:00:57;;;;;;;4.20;3.90;;;;;;;10.96;79.70;102694.03;4995377;28;20258;-79
2023/12/17 11:03:25;;;;;;;3.50;3.30;;;;;;;11.01;79.07;102693.25;4993091;28;20224;-81
2023/12/17 11:05:56;;;;;;;3.10;2.90;;;;;;;10.32;79.21;102713.81;4995103;28;20250;-81
2023/12/17 11:08:24;;;;;;;3.37;3.17;;;;;;;10.70;80.07;102681.41;4995418;28;20203;-80
2023/12/17 11:10:50;;;;;;;3.00;2.80;;;;;;;10.76;79.27;102683.25;4996284;28;20811;-81
2023/12/17 11:13:21;;;;;;;4.07;3.77;;;;;;;10.91;79.67;102666.09;4995930;28;20286;-80
2023/12/17 11:15:47;;;;;;;3.80;3.50;;;;;;;10.98;78.90;102692.31;4993420;28;20214;-80
2023/12/17 11:18:14;;;;;;;3.27;3.07;;;;;;;10.87;78.01;102710.44;4996458;28;20211;-81
2023/12/17 11:20:41;;;;;;;3.77;3.57;;;;;;;10.93;78.54;102700.09;4996204;28;20207;-82
2023/12/17 11:23:08;;;;;;;3.33;3.03;;;;;;;11.01;78.73;102698.47;4995644;28;20234;-80